createdAt,value
2019-02-21T18:25:46.349Z,52.99
2019-02-21T18:28:18.211Z,58.56
2019-02-21T18:30:48.428Z,62.54
2019-02-21T18:33:18.788Z,64.90
2019-02-21T18:35:49.012Z,66.50
2019-02-21T18:38:25.633Z,66.90
2019-02-21T18:41:15.392Z,67.42
2019-02-21T18:43:45.600Z,67.39
2019-02-21T18:46:15.928Z,68.68
2019-02-21T18:48:48.079Z,70.92
2019-02-21T18:51:19.006Z,71.04
2019-02-21T18:53:49.263Z,70.70
2019-02-21T18:56:25.519Z,69.17
2019-02-21T18:59:01.645Z,69.77
2019-02-21T19:01:31.922Z,70.16
2019-02-21T19:04:25.577Z,69.62
2019-02-21T19:07:03.105Z,70.46
2019-02-21T19:09:33.311Z,70.69
2019-02-21T19:12:04.583Z,69.33
2019-02-21T19:14:34.770Z,69.44
2019-02-21T19:17:05.164Z,68.71
2019-02-21T19:19:41.118Z,68.94
2019-02-21T19:22:12.283Z,68.84
2019-02-21T19:24:42.486Z,69.08
2019-02-21T19:27:12.703Z,69.50
2019-02-21T19:29:43.551Z,70.93
2019-02-21T19:32:14.088Z,69.00
2019-02-21T19:34:56.775Z,70.83
2019-02-21T19:37:26.992Z,70.16
2019-02-21T19:39:57.265Z,70.67
2019-02-21T19:42:52.377Z,69.94
2019-02-21T19:45:23.567Z,69.69
2019-02-21T19:47:53.787Z,70.25
2019-02-21T19:50:30.069Z,68.92
2019-02-21T19:53:00.369Z,69.02
2019-02-21T19:55:42.518Z,69.18
2019-02-21T19:58:25.095Z,68.76
2019-02-21T20:01:02.666Z,69.21
2019-02-21T20:04:01.650Z,69.62
2019-02-21T20:06:37.278Z,69.02
2019-02-21T20:09:18.788Z,68.93
2019-02-21T20:11:49.171Z,70.77
2019-02-21T20:14:41.567Z,71.04
2019-02-21T20:17:17.200Z,70.51
2019-02-21T20:19:49.039Z,70.76
2019-02-21T20:22:35.671Z,71.27
2019-02-21T20:25:06.759Z,72.35
2019-02-21T20:27:42.194Z,74.25
2019-02-21T20:30:16.776Z,74.30
2019-02-21T20:32:51.487Z,74.52
2019-02-21T20:35:28.631Z,75.63
2019-02-21T20:37:58.840Z,75.40
2019-02-21T20:40:29.111Z,75.27
2019-02-21T20:43:02.525Z,75.31
2019-02-21T20:45:52.113Z,75.03
2019-02-21T20:48:15.778Z,76.07
2019-02-21T20:50:56.095Z,77.04
2019-02-21T20:53:17.886Z,79.16
2019-02-21T20:55:50.099Z,77.29
2019-02-21T20:58:27.521Z,78.76
2019-02-21T21:00:58.412Z,78.41
2019-02-21T21:03:28.613Z,78.04
2019-02-21T21:05:58.947Z,78.42
2019-02-21T21:08:29.217Z,79.18
2019-02-21T21:11:16.734Z,79.51
2019-02-21T21:13:48.879Z,79.70
2019-02-21T21:16:25.035Z,80.36
2019-02-21T21:18:55.326Z,79.48
2019-02-21T21:21:25.609Z,80.88
2019-02-21T21:23:55.811Z,80.51
2019-02-21T21:26:26.086Z,81.00
2019-02-21T21:28:57.369Z,80.75
2019-02-21T21:31:33.541Z,80.89
2019-02-21T21:34:12.185Z,80.34
2019-02-21T21:36:42.386Z,81.15
2019-02-21T21:39:14.130Z,82.09
2019-02-21T21:41:45.494Z,80.99
2019-02-21T21:44:15.683Z,81.29
2019-02-21T21:46:46.867Z,81.07
2019-02-21T21:49:17.073Z,81.77
2019-02-21T21:51:47.291Z,81.79
2019-02-21T21:54:17.485Z,82.41
2019-02-21T21:57:06.147Z,81.85
2019-02-21T21:59:38.252Z,81.85
2019-02-21T22:02:14.422Z,81.88
2019-02-21T22:04:55.565Z,81.94
2019-02-21T22:07:25.766Z,82.30
2019-02-21T22:09:55.954Z,83.16
2019-02-21T22:12:29.098Z,83.76
2019-02-21T22:14:59.296Z,83.07
2019-02-21T22:17:29.647Z,83.14
2019-02-21T22:19:59.827Z,82.74
2019-02-21T22:22:38.019Z,83.32
2019-02-21T22:25:12.859Z,82.72
2019-02-21T22:27:49.287Z,82.21
2019-02-21T22:30:46.351Z,83.16
2019-02-21T22:33:22.867Z,84.13
2019-02-21T22:35:53.052Z,83.81
2019-02-21T22:38:29.875Z,83.28
2019-02-21T22:41:00.079Z,82.63
2019-02-21T22:43:31.457Z,82.03
2019-02-21T22:46:01.659Z,82.55
2019-02-21T22:48:46.617Z,82.40
2019-02-21T22:51:09.100Z,81.69
2019-02-21T22:53:39.316Z,83.41
2019-02-21T22:56:10.796Z,82.88
2019-02-21T22:58:45.478Z,82.69
2019-02-21T23:01:26.508Z,82.97
2019-02-21T23:04:00.309Z,82.71
2019-02-21T23:06:51.992Z,82.52
2019-02-21T23:09:27.435Z,83.78
2019-02-21T23:11:55.724Z,84.23
2019-02-21T23:14:26.008Z,82.99
2019-02-21T23:16:56.202Z,83.55
2019-02-21T23:19:26.410Z,83.37
2019-02-21T23:21:56.674Z,83.84
2019-02-21T23:24:38.215Z,83.06
2019-02-21T23:27:08.455Z,83.26
2019-02-21T23:29:38.836Z,82.78
2019-02-21T23:32:09.031Z,83.15
2019-02-21T23:34:43.183Z,82.95
2019-02-21T23:37:13.373Z,83.31
2019-02-21T23:40:01.602Z,82.50
2019-02-21T23:42:32.084Z,83.15
2019-02-21T23:45:02.292Z,82.18
2019-02-21T23:47:32.467Z,82.00
2019-02-21T23:50:18.753Z,81.85
2019-02-21T23:52:51.028Z,81.72
2019-02-21T23:55:21.234Z,82.78
2019-02-21T23:58:16.674Z,82.75
